Time;durP1;ratioP1;P1;durP2;ratioP2;P2;SDS_P1;SDS_P2;PMS_P1;PMS_P2;Temp;Humidity;BMP_temperature;BMP_pressure;BME280_temperature;BME280_humidity;BME280_pressure;Samples;Min_cycle;Max_cycle;Signal;HPM_P1;HPM_P2
2023/06/17 00:01:50;;;;;;;9.18;8.38;;;14.10;99.90;;;;;;5086500;28;20044;-84
2023/06/17 00:04:15;;;;;;;12.55;8.63;;;14.10;99.90;;;;;;5082002;28;20059;-85
2023/06/17 00:06:41;;;;;;;10.27;9.27;;;14.70;99.90;;;;;;5071352;28;20043;-86
2023/06/17 00:09:07;;;;;;;11.07;8.15;;;14.30;99.90;;;;;;5086893;28;20056;-85
2023/06/17 00:11:32;;;;;;;11.80;8.80;;;14.00;99.90;;;;;;5086255;28;20036;-85
2023/06/17 00:14:00;;;;;;;10.63;9.55;;;14.00;99.90;;;;;;5068563;28;20036;-85
2023/06/17 00:16:26;;;;;;;10.75;9.65;;;14.00;99.90;;;;;;5085786;28;20071;-85
2023/06/17 00:18:53;;;;;;;11.68;9.82;;;14.40;99.90;;;;;;5085453;28;20044;-86
2023/06/17 00:21:19;;;;;;;11.60;10.30;;;14.40;99.90;;;;;;5080732;28;20059;-84
2023/06/17 00:23:45;;;;;;;11.90;9.75;;;13.90;99.90;;;;;;5087755;28;20083;-85
2023/06/17 00:26:11;;;;;;;11.88;9.75;;;14.00;99.90;;;;;;5085205;28;20083;-85
2023/06/17 00:28:36;;;;;;;11.52;9.70;;;14.00;99.90;;;;;;5068761;28;20040;-85
2023/06/17 00:31:02;;;;;;;10.32;9.40;;;13.90;99.90;;;;;;5085288;28;20039;-86
2023/06/17 00:33:28;;;;;;;11.68;9.90;;;15.10;99.90;;;;;;5085386;28;20066;-85
2023/06/17 00:35:53;;;;;;;13.32;10.15;;;13.90;99.90;;;;;;5082447;28;20098;-85
2023/06/17 00:38:19;;;;;;;13.30;9.93;;;14.30;99.90;;;;;;5069993;28;20044;-85
2023/06/17 00:40:44;;;;;;;14.40;10.27;;;13.80;99.90;;;;;;5083244;28;20050;-85
2023/06/17 00:43:10;;;;;;;12.10;9.65;;;14.50;99.90;;;;;;5085569;28;20131;-85
2023/06/17 00:45:38;;;;;;;12.95;11.32;;;13.80;99.90;;;;;;5069075;28;20076;-86
2023/06/17 00:48:09;;;;;;;12.43;10.48;;;14.30;99.90;;;;;;5084813;28;20078;-85
2023/06/17 00:50:36;;;;;;;14.40;11.43;;;13.80;99.90;;;;;;5067684;28;20068;-85
2023/06/17 00:53:03;;;;;;;11.98;10.77;;;13.80;99.90;;;;;;5084666;28;20048;-86
2023/06/17 00:55:29;;;;;;;12.10;10.85;;;13.70;99.90;;;;;;5080121;28;20048;-84
2023/06/17 00:57:57;;;;;;;11.95;10.73;;;13.80;99.90;;;;;;5086919;28;20048;-84
2023/06/17 01:00:23;;;;;;;14.60;11.63;;;13.80;99.90;;;;;;5066187;28;20054;-85
2023/06/17 01:02:49;;;;;;;13.68;12.30;;;13.80;99.90;;;;;;5081352;28;20048;-84
2023/06/17 01:05:17;;;;;;;14.45;12.43;;;13.80;99.90;;;;;;5080996;28;20063;-85
2023/06/17 01:08:09;;;;;;;14.13;12.52;;;14.10;99.90;;;;;;5073657;28;20431;-85
2023/06/17 01:10:42;;;;;;;13.10;11.07;;;13.90;99.90;;;;;;5087153;28;20044;-86
2023/06/17 01:13:11;;;;;;;14.43;12.93;;;14.00;99.90;;;;;;5088811;28;20044;-84
2023/06/17 01:15:38;;;;;;;13.75;12.40;;;14.50;99.90;;;;;;5085713;28;20056;-85
2023/06/17 01:18:04;;;;;;;16.92;12.70;;;14.60;99.90;;;;;;5085529;28;20056;-86
2023/06/17 01:20:32;;;;;;;15.50;12.88;;;14.10;99.90;;;;;;5067652;28;20044;-86
2023/06/17 01:22:59;;;;;;;17.15;13.88;;;14.20;99.90;;;;;;5084493;28;20097;-85
2023/06/17 01:25:30;;;;;;;16.73;13.85;;;14.30;99.90;;;;;;5085250;28;20075;-85
2023/06/17 01:28:00;;;;;;;15.65;14.05;;;14.30;99.90;;;;;;5068012;28;20491;-85
2023/06/17 01:30:29;;;;;;;16.13;14.40;;;14.40;99.90;;;;;;5084355;28;20537;-86
2023/06/17 01:32:57;;;;;;;18.52;14.98;;;14.40;99.90;;;;;;5065693;28;20070;-86
2023/06/17 01:35:27;;;;;;;15.80;14.23;;;14.40;99.90;;;;;;5087082;28;20050;-86
2023/06/17 01:38:07;;;;;;;19.88;14.75;;;14.50;99.90;;;;;;5067906;28;20682;-84
2023/06/17 01:40:33;;;;;;;18.73;14.82;;;14.60;99.90;;;;;;5085521;28;20048;-84
2023/06/17 01:43:01;;;;;;;16.42;13.90;;;14.80;99.90;;;;;;5086420;28;20044;-85
2023/06/17 01:45:28;;;;;;;17.60;14.63;;;14.60;99.90;;;;;;5086233;28;20052;-85
2023/06/17 01:47:54;;;;;;;17.95;14.52;;;14.60;99.90;;;;;;5079463;28;20558;-85
2023/06/17 01:50:20;;;;;;;16.15;14.25;;;15.00;99.90;;;;;;5067550;28;20047;-85
2023/06/17 01:52:46;;;;;;;16.70;14.95;;;14.70;99.90;;;;;;5084257;28;20032;-85
2023/06/17 01:55:13;;;;;;;18.38;14.88;;;14.70;99.90;;;;;;5066548;28;20044;-85
2023/06/17 01:57:38;;;;;;;17.27;15.20;;;14.90;99.90;;;;;;5083908;28;20078;-85
2023/06/17 02:00:04;;;;;;;20.70;15.25;;;14.80;99.90;;;;;;5084200;28;20055;-85
2023/06/17 02:02:30;;;;;;;20.42;15.77;;;14.70;99.90;;;;;;5081908;28;20062;-84
2023/06/17 02:04:57;;;;;;;17.75;15.77;;;15.10;99.90;;;;;;5068809;28;20043;-86
2023/06/17 02:07:25;;;;;;;19.00;16.60;;;15.10;99.90;;;;;;5083645;28;20042;-85
2023/06/17 02:09:51;;;;;;;21.98;17.65;;;15.40;99.90;;;;;;5067152;28;20083;-85
2023/06/17 02:12:17;;;;;;;20.55;17.33;;;14.90;99.90;;;;;;5083450;28;20101;-86
2023/06/17 02:14:43;;;;;;;21.25;16.88;;;14.80;99.90;;;;;;5084550;28;20040;-85
2023/06/17 02:17:10;;;;;;;19.45;16.38;;;14.80;99.90;;;;;;5062897;28;20056;-86
2023/06/17 02:19:37;;;;;;;19.50;16.45;;;15.50;99.90;;;;;;5068855;28;20051;-86
2023/06/17 02:22:04;;;;;;;47.17;18.20;;;14.90;99.90;;;;;;5085075;28;20054;-86
2023/06/17 02:24:32;;;;;;;23.40;18.05;;;14.90;99.90;;;;;;5069473;28;20412;-86
2023/06/17 02:26:58;;;;;;;22.23;17.55;;;15.40;99.90;;;;;;5065784;28;20054;-85
2023/06/17 02:29:25;;;;;;;22.02;17.52;;;14.80;99.90;;;;;;5065663;28;20385;-85
2023/06/17 02:31:51;;;;;;;21.83;17.75;;;14.80;99.90;;;;;;5083477;28;20383;-84
2023/06/17 02:34:17;;;;;;;26.00;18.80;;;14.80;99.90;;;;;;5065515;28;20051;-85
2023/06/17 02:36:44;;;;;;;25.75;18.38;;;14.80;99.90;;;;;;5082468;28;20437;-86
2023/06/17 02:39:10;;;;;;;24.13;18.52;;;14.80;99.90;;;;;;5080884;28;20055;-85
2023/06/17 02:41:36;;;;;;;25.35;18.85;;;14.80;99.90;;;;;;5083345;28;20518;-85
2023/06/17 02:44:01;;;;;;;21.33;17.85;;;14.80;99.90;;;;;;5083405;28;20722;-85
2023/06/17 02:46:27;;;;;;;23.85;19.92;;;14.80;99.90;;;;;;5066332;28;20036;-84
2023/06/17 02:48:54;;;;;;;26.50;18.98;;;14.80;99.90;;;;;;5082843;28;20553;-85
2023/06/17 02:51:20;;;;;;;22.25;18.13;;;15.50;99.90;;;;;;5085638;28;20491;-85
2023/06/17 02:53:45;;;;;;;26.00;19.60;;;14.90;99.90;;;;;;5064804;28;20044;-85
2023/06/17 02:56:11;;;;;;;22.88;18.30;;;14.80;99.90;;;;;;5065715;28;20126;-85
2023/06/17 02:58:37;;;;;;;26.77;18.63;;;14.80;99.90;;;;;;5082960;28;20089;-85
2023/06/17 03:01:05;;;;;;;22.17;18.20;;;15.10;99.90;;;;;;5080007;28;20082;-85
2023/06/17 03:03:34;;;;;;;25.27;18.48;;;14.90;99.90;;;;;;5081737;28;20067;-85
2023/06/17 03:06:01;;;;;;;26.02;19.60;;;14.80;99.90;;;;;;5076517;28;20044;-85
2023/06/17 03:08:32;;;;;;;22.85;18.15;;;15.10;99.90;;;;;;5083255;28;20044;-85
2023/06/17 03:10:58;;;;;;;23.67;18.40;;;15.10;99.90;;;;;;5084045;28;20109;-84
2023/06/17 03:13:24;;;;;;;23.00;19.17;;;14.80;99.90;;;;;;5066447;28;20032;-84
2023/06/17 03:15:50;;;;;;;26.23;18.90;;;14.80;99.90;;;;;;5086278;28;20044;-84
2023/06/17 03:18:16;;;;;;;23.13;18.10;;;14.80;99.90;;;;;;5084140;28;20443;-85
2023/06/17 03:20:42;;;;;;;25.92;19.17;;;14.80;99.90;;;;;;5080487;28;20071;-85
2023/06/17 03:23:08;;;;;;;24.10;19.60;;;14.70;99.90;;;;;;5085507;28;20472;-85
2023/06/17 03:25:34;;;;;;;26.42;19.33;;;14.80;99.90;;;;;;5085666;28;20052;-86
2023/06/17 03:28:03;;;;;;;24.83;19.58;;;14.70;99.90;;;;;;5086009;28;20036;-84
2023/06/17 03:30:31;;;;;;;26.15;19.98;;;14.70;99.90;;;;;;5068467;28;20048;-84
2023/06/17 03:32:57;;;;;;;27.70;19.00;;;14.70;99.90;;;;;;5070332;28;20060;-85
2023/06/17 03:35:23;;;;;;;23.23;18.92;;;15.30;99.90;;;;;;5066197;28;20044;-84
2023/06/17 03:37:49;;;;;;;22.33;19.80;;;14.80;99.90;;;;;;5084562;28;20048;-85
2023/06/17 03:40:15;;;;;;;29.17;18.95;;;14.70;99.90;;;;;;5086581;28;20105;-85
2023/06/17 03:42:41;;;;;;;26.27;19.45;;;14.70;99.90;;;;;;5067754;28;20048;-85
2023/06/17 03:45:07;;;;;;;25.67;19.17;;;14.70;99.90;;;;;;5072436;28;20079;-86
2023/06/17 03:47:33;;;;;;;26.00;20.65;;;14.70;99.90;;;;;;5089038;28;20052;-85
2023/06/17 03:49:58;;;;;;;26.27;20.77;;;14.70;99.90;;;;;;5085294;28;20056;-85
2023/06/17 03:52:24;;;;;;;25.20;20.70;;;14.70;99.90;;;;;;5088028;28;20040;-84
2023/06/17 03:54:50;;;;;;;26.30;18.73;;;14.70;99.90;;;;;;5085835;28;20525;-84
2023/06/17 03:57:15;;;;;;;26.58;20.77;;;14.70;99.90;;;;;;5086400;28;20038;-85
2023/06/17 03:59:41;;;;;;;27.17;20.85;;;14.70;99.90;;;;;;5071337;28;20048;-84
2023/06/17 04:02:07;;;;;;;25.17;20.10;;;14.70;99.90;;;;;;5077501;28;20044;-85
2023/06/17 04:04:34;;;;;;;26.23;20.38;;;14.80;99.90;;;;;;5087207;28;20391;-85
2023/06/17 04:07:04;;;;;;;24.77;20.92;;;15.30;99.90;;;;;;5085755;28;20052;-86
2023/06/17 04:09:32;;;;;;;27.35;19.83;;;14.70;99.90;;;;;;5087609;28;20059;-86
2023/06/17 04:11:58;;;;;;;22.55;18.63;;;14.80;99.90;;;;;;5071909;28;20157;-85
2023/06/17 04:14:24;;;;;;;27.83;20.75;;;14.90;99.90;;;;;;5068043;28;20119;-86
2023/06/17 04:16:49;;;;;;;26.25;19.95;;;14.80;99.90;;;;;;5088078;28;20039;-86
2023/06/17 04:19:17;;;;;;;25.38;20.70;;;14.90;99.90;;;;;;5088503;28;20051;-86
2023/06/17 04:21:44;;;;;;;24.95;19.33;;;14.90;99.90;;;;;;5087479;28;20060;-84
2023/06/17 04:24:12;;;;;;;26.77;20.88;;;15.00;99.90;;;;;;5086799;28;20039;-85
2023/06/17 04:26:38;;;;;;;24.73;20.00;;;15.00;99.90;;;;;;5085198;28;20056;-85
2023/06/17 04:29:04;;;;;;;25.80;19.42;;;15.60;99.90;;;;;;5085952;28;20129;-86
2023/06/17 04:31:29;;;;;;;25.52;19.42;;;15.00;99.90;;;;;;5086699;28;20492;-85
2023/06/17 04:33:55;;;;;;;29.20;19.45;;;14.80;99.90;;;;;;5083643;28;20583;-86
2023/06/17 04:36:23;;;;;;;25.65;19.45;;;15.00;99.90;;;;;;5086170;28;20697;-86
2023/06/17 04:38:49;;;;;;;22.58;18.88;;;15.10;99.90;;;;;;5084649;28;20056;-84
2023/06/17 04:41:16;;;;;;;22.88;18.98;;;15.20;99.90;;;;;;5066621;28;20043;-85
2023/06/17 04:43:45;;;;;;;24.20;19.58;;;15.00;99.90;;;;;;5086021;28;20044;-85
2023/06/17 04:46:12;;;;;;;24.17;20.20;;;15.00;99.90;;;;;;5087416;28;20113;-85
2023/06/17 04:48:38;;;;;;;26.88;20.23;;;15.10;99.90;;;;;;5070264;28;20064;-85
2023/06/17 04:51:05;;;;;;;26.70;18.70;;;15.60;99.90;;;;;;5068575;28;20785;-86
2023/06/17 04:53:31;;;;;;;24.45;19.55;;;15.10;99.90;;;;;;5066570;28;20101;-86
2023/06/17 04:55:57;;;;;;;23.73;18.77;;;15.10;99.90;;;;;;5065112;28;20123;-85
2023/06/17 04:58:23;;;;;;;24.08;20.33;;;15.20;99.90;;;;;;5087132;28;20147;-86
2023/06/17 05:00:48;;;;;;;24.20;20.10;;;15.20;99.90;;;;;;5084601;28;20509;-87
2023/06/17 05:03:14;;;;;;;23.67;18.42;;;15.20;99.90;;;;;;5084600;28;20044;-86
2023/06/17 05:05:40;;;;;;;25.15;19.58;;;15.30;99.90;;;;;;5084043;28;20044;-86
2023/06/17 05:08:05;;;;;;;23.20;18.73;;;15.60;99.90;;;;;;5083514;28;20044;-87
2023/06/17 05:10:31;;;;;;;25.38;20.17;;;15.30;99.90;;;;;;5068626;28;20731;-85
2023/06/17 05:12:57;;;;;;;23.88;20.17;;;15.30;99.90;;;;;;5085266;28;20066;-86
2023/06/17 05:15:22;;;;;;;23.25;19.90;;;15.80;99.90;;;;;;5084664;28;20119;-87
2023/06/17 05:17:48;;;;;;;29.20;20.50;;;15.30;99.90;;;;;;5085120;28;20052;-87
2023/06/17 05:20:14;;;;;;;24.23;19.52;;;15.30;99.90;;;;;;5083247;28;20047;-86
2023/06/17 05:22:39;;;;;;;21.90;17.83;;;15.30;99.90;;;;;;5085038;28;20503;-85
2023/06/17 05:25:06;;;;;;;21.77;18.20;;;15.30;99.90;;;;;;5085501;28;20369;-86
2023/06/17 05:27:32;;;;;;;23.35;19.42;;;15.20;99.90;;;;;;5069571;28;20142;-86
2023/06/17 05:29:57;;;;;;;23.88;18.65;;;15.20;99.90;;;;;;5085920;28;20503;-86
2023/06/17 05:32:24;;;;;;;23.52;18.38;;;15.30;99.90;;;;;;5085698;28;20074;-86
2023/06/17 05:34:50;;;;;;;24.55;19.30;;;15.70;99.90;;;;;;5087206;28;20086;-87
2023/06/17 05:37:16;;;;;;;25.05;19.77;;;15.30;99.90;;;;;;5086470;28;20124;-86
2023/06/17 05:39:41;;;;;;;22.20;19.60;;;15.20;99.90;;;;;;5087329;28;20079;-87
2023/06/17 05:42:07;;;;;;;22.30;18.67;;;16.30;99.90;;;;;;5086308;28;20157;-86
2023/06/17 05:44:35;;;;;;;22.45;18.98;;;15.30;99.90;;;;;;5069059;28;20044;-87
2023/06/17 05:47:01;;;;;;;26.08;19.33;;;15.40;99.90;;;;;;5087999;28;20062;-85
2023/06/17 05:49:26;;;;;;;23.60;17.40;;;15.70;99.90;;;;;;5070120;28;20495;-85
2023/06/17 05:51:52;;;;;;;23.77;19.45;;;15.40;99.90;;;;;;5086294;28;20040;-83
2023/06/17 05:54:17;;;;;;;21.77;18.27;;;15.90;99.90;;;;;;5087072;28;20121;-84
2023/06/17 05:56:43;;;;;;;22.88;18.40;;;15.50;99.90;;;;;;5087040;28;20453;-86
2023/06/17 05:59:09;;;;;;;24.27;18.63;;;15.90;99.90;;;;;;5086630;28;20040;-86
2023/06/17 06:01:35;;;;;;;22.55;18.80;;;15.60;99.90;;;;;;5069763;28;20132;-86
2023/06/17 06:04:00;;;;;;;23.67;18.60;;;15.60;99.90;;;;;;5067539;28;20851;-86
2023/06/17 06:06:26;;;;;;;21.42;17.70;;;15.60;99.90;;;;;;5083327;28;20048;-85
2023/06/17 06:08:51;;;;;;;25.80;19.13;;;15.60;99.90;;;;;;5088285;28;20076;-84
2023/06/17 06:11:20;;;;;;;21.33;18.15;;;15.60;99.90;;;;;;5070726;28;20040;-84
2023/06/17 06:13:46;;;;;;;21.30;17.38;;;16.20;99.90;;;;;;5069820;28;20061;-86
2023/06/17 06:16:12;;;;;;;20.45;18.25;;;15.70;99.90;;;;;;5088345;28;20533;-86
2023/06/17 06:18:40;;;;;;;22.70;18.15;;;15.90;99.90;;;;;;5070320;28;20044;-86
2023/06/17 06:21:06;;;;;;;23.23;18.73;;;15.80;99.90;;;;;;5070026;28;20511;-85
2023/06/17 06:23:31;;;;;;;22.17;18.83;;;15.90;99.90;;;;;;5087349;28;20040;-87
2023/06/17 06:25:57;;;;;;;24.00;18.65;;;15.80;99.90;;;;;;5087067;28;20729;-87
2023/06/17 06:28:23;;;;;;;23.23;18.80;;;15.80;99.90;;;;;;5087324;28;20071;-85
2023/06/17 06:30:48;;;;;;;20.88;18.30;;;15.80;99.90;;;;;;5086286;28;20165;-81
2023/06/17 06:33:14;;;;;;;21.08;18.17;;;16.00;99.90;;;;;;5067145;28;20115;-82
2023/06/17 06:35:41;;;;;;;23.63;17.83;;;16.00;99.90;;;;;;5086339;28;20096;-82
2023/06/17 06:38:07;;;;;;;23.10;18.35;;;15.90;99.90;;;;;;5084663;28;20423;-82
2023/06/17 06:40:32;;;;;;;24.20;18.30;;;16.00;99.90;;;;;;5087705;28;20047;-83
2023/06/17 06:42:58;;;;;;;20.67;16.95;;;15.90;99.90;;;;;;5087621;28;20063;-82
2023/06/17 06:45:23;;;;;;;21.08;18.38;;;15.90;99.90;;;;;;5086786;28;20044;-82
2023/06/17 06:47:49;;;;;;;23.27;18.15;;;16.40;99.90;;;;;;5068693;28;20125;-82
2023/06/17 06:50:15;;;;;;;23.52;18.20;;;16.40;99.90;;;;;;5086549;28;20491;-82
2023/06/17 06:52:40;;;;;;;22.92;18.35;;;16.10;99.90;;;;;;5086313;28;20055;-82
2023/06/17 06:55:06;;;;;;;20.63;17.80;;;16.10;99.90;;;;;;5068676;28;20158;-82
2023/06/17 06:57:32;;;;;;;21.80;17.77;;;16.20;99.90;;;;;;5069848;28;20127;-82
2023/06/17 06:59:57;;;;;;;23.80;17.30;;;16.30;99.90;;;;;;5072731;28;20040;-81
2023/06/17 07:02:23;;;;;;;21.90;16.88;;;16.50;99.90;;;;;;5073940;28;20132;-81
2023/06/17 07:04:49;;;;;;;23.23;18.17;;;16.50;99.90;;;;;;5090363;28;20087;-81
2023/06/17 07:07:14;;;;;;;20.40;18.27;;;16.50;99.90;;;;;;5091115;28;20040;-80
2023/06/17 07:09:40;;;;;;;19.73;16.80;;;16.60;99.90;;;;;;5092180;28;20068;-81
2023/06/17 07:12:06;;;;;;;20.52;16.58;;;16.90;99.90;;;;;;5090453;28;20039;-82
2023/06/17 07:14:32;;;;;;;20.73;17.45;;;16.80;99.90;;;;;;5089718;28;20052;-81
2023/06/17 07:16:58;;;;;;;21.30;17.00;;;17.00;99.90;;;;;;5090525;28;20086;-81
2023/06/17 07:19:23;;;;;;;19.80;16.48;;;17.20;99.90;;;;;;5089365;28;20036;-81
2023/06/17 07:21:49;;;;;;;22.42;17.98;;;17.40;99.90;;;;;;5089527;28;20447;-81
2023/06/17 07:24:16;;;;;;;19.33;17.25;;;17.60;99.90;;;;;;5090793;28;20043;-82
2023/06/17 07:26:41;;;;;;;19.58;16.27;;;17.60;99.90;;;;;;5089849;28;20052;-82
2023/06/17 07:29:07;;;;;;;20.15;17.02;;;17.70;99.90;;;;;;5089302;28;20402;-82
2023/06/17 07:31:32;;;;;;;20.10;16.60;;;17.80;99.90;;;;;;5089701;28;20113;-82
2023/06/17 07:33:58;;;;;;;17.67;15.88;;;18.00;99.90;;;;;;5072090;28;20109;-81
2023/06/17 07:36:24;;;;;;;18.00;16.10;;;18.10;99.90;;;;;;5090906;28;20044;-82
2023/06/17 07:38:51;;;;;;;21.83;16.75;;;18.50;99.90;;;;;;5089446;28;20048;-81
2023/06/17 07:41:17;;;;;;;18.40;15.60;;;18.90;99.90;;;;;;5089209;28;20044;-82
2023/06/17 07:43:42;;;;;;;17.73;15.90;;;19.10;99.90;;;;;;5089102;28;20128;-82
2023/06/17 07:46:08;;;;;;;15.88;14.27;;;19.10;99.90;;;;;;5089192;28;20048;-80
2023/06/17 07:48:33;;;;;;;17.38;15.68;;;19.20;99.90;;;;;;5088733;28;20052;-81
2023/06/17 07:50:59;;;;;;;18.10;16.00;;;19.30;99.90;;;;;;5089495;28;20048;-81
2023/06/17 07:53:25;;;;;;;17.40;15.52;;;19.30;99.90;;;;;;5088945;28;20044;-81
2023/06/17 07:55:52;;;;;;;17.10;15.32;;;19.30;99.90;;;;;;5088784;28;20395;-82
2023/06/17 07:58:18;;;;;;;18.35;14.80;;;19.70;99.90;;;;;;5089091;28;20463;-81
2023/06/17 08:00:43;;;;;;;16.85;14.93;;;19.90;99.90;;;;;;5090126;28;20036;-82
2023/06/17 08:03:09;;;;;;;17.27;15.48;;;20.00;99.90;;;;;;5090151;28;20173;-83
2023/06/17 08:05:36;;;;;;;18.08;15.98;;;20.30;99.90;;;;;;5089540;28;20037;-82
2023/06/17 08:08:02;;;;;;;16.02;14.43;;;20.20;99.90;;;;;;5089053;28;20050;-82
2023/06/17 08:10:27;;;;;;;17.15;14.65;;;20.30;99.90;;;;;;5071806;28;20048;-81
2023/06/17 08:12:53;;;;;;;18.58;16.17;;;20.30;99.90;;;;;;5089355;28;20047;-80
2023/06/17 08:15:19;;;;;;;18.38;15.13;;;20.30;99.90;;;;;;5088088;28;20044;-83
2023/06/17 08:17:47;;;;;;;16.88;14.98;;;20.30;99.90;;;;;;5071818;28;20113;-84
2023/06/17 08:20:13;;;;;;;16.67;14.75;;;20.40;99.90;;;;;;5087752;28;20438;-84
2023/06/17 08:22:39;;;;;;;17.67;15.18;;;20.40;99.90;;;;;;5088225;28;20046;-81
2023/06/17 08:25:05;;;;;;;17.33;14.95;;;20.40;99.90;;;;;;5088264;28;20193;-81
2023/06/17 08:27:32;;;;;;;15.18;13.65;;;20.40;99.90;;;;;;5086988;28;20404;-82
2023/06/17 08:29:58;;;;;;;14.95;13.38;;;20.40;99.90;;;;;;5070259;28;20044;-83
2023/06/17 08:32:24;;;;;;;16.42;13.10;;;20.50;99.90;;;;;;5087020;28;20519;-82
2023/06/17 08:34:50;;;;;;;17.38;15.40;;;20.60;99.90;;;;;;5085933;28;20124;-81
2023/06/17 08:37:16;;;;;;;17.75;15.65;;;20.60;99.90;;;;;;5086896;28;20737;-82
2023/06/17 08:39:42;;;;;;;14.95;13.20;;;21.10;99.90;;;;;;5069382;28;20178;-81
2023/06/17 08:42:08;;;;;;;14.30;12.82;;;20.90;99.90;;;;;;5069929;28;20064;-83
2023/06/17 08:44:40;;;;;;;15.90;13.82;;;21.00;99.90;;;;;;5087899;28;20096;-82
2023/06/17 08:47:06;;;;;;;18.63;14.05;;;21.00;99.90;;;;;;5087964;28;20143;-83
2023/06/17 08:49:32;;;;;;;15.38;13.85;;;20.90;99.90;;;;;;5088330;28;20535;-83
2023/06/17 08:52:00;;;;;;;15.57;13.90;;;21.20;99.90;;;;;;5071598;28;20086;-81
2023/06/17 08:54:30;;;;;;;16.70;14.50;;;21.00;99.90;;;;;;5078480;28;20792;-81
2023/06/17 08:56:56;;;;;;;17.67;15.35;;;21.20;99.90;;;;;;5067865;28;20407;-82
2023/06/17 08:59:21;;;;;;;17.17;13.70;;;21.10;99.90;;;;;;5067215;28;20048;-82
2023/06/17 09:01:48;;;;;;;15.18;13.65;;;21.60;99.90;;;;;;5067543;28;20053;-81
2023/06/17 09:04:14;;;;;;;15.20;13.60;;;21.20;99.90;;;;;;5067296;28;20053;-83
2023/06/17 09:06:40;;;;;;;16.38;13.52;;;21.30;99.90;;;;;;5068708;28;20048;-83
2023/06/17 09:09:05;;;;;;;15.50;13.60;;;21.40;99.90;;;;;;5079684;28;20399;-83
2023/06/17 09:11:32;;;;;;;15.43;13.02;;;21.50;99.90;;;;;;5089367;28;20048;-84
2023/06/17 09:13:59;;;;;;;16.52;12.55;;;21.70;99.90;;;;;;5088904;28;20055;-84
2023/06/17 09:16:29;;;;;;;15.10;13.50;;;21.90;99.90;;;;;;5088366;28;20091;-84
2023/06/17 09:18:57;;;;;;;15.68;13.20;;;22.00;99.90;;;;;;5071028;28;20052;-84
2023/06/17 09:21:24;;;;;;;14.43;12.93;;;22.00;99.90;;;;;;5087072;28;20044;-84
2023/06/17 09:23:58;;;;;;;12.93;11.57;;;22.10;99.90;;;;;;5088004;28;20407;-84
2023/06/17 09:26:25;;;;;;;15.32;12.00;;;22.30;99.90;;;;;;5087823;28;20122;-85
2023/06/17 09:28:51;;;;;;;13.70;12.10;;;22.30;99.90;;;;;;5089281;28;20161;-84
2023/06/17 09:31:21;;;;;;;13.95;12.48;;;22.50;99.90;;;;;;5088736;28;20059;-84
2023/06/17 09:33:46;;;;;;;14.55;12.27;;;22.30;99.90;;;;;;5087301;28;20071;-84
2023/06/17 09:36:12;;;;;;;15.15;12.40;;;22.70;99.90;;;;;;5070350;28;20059;-84
2023/06/17 09:38:38;;;;;;;13.20;11.90;;;22.70;99.90;;;;;;5087962;28;20082;-85
2023/06/17 09:41:04;;;;;;;13.88;11.52;;;23.40;99.90;;;;;;5086564;28;20066;-84
2023/06/17 09:43:30;;;;;;;12.02;10.82;;;22.90;99.90;;;;;;5086385;28;20048;-84
2023/06/17 09:46:02;;;;;;;12.77;11.50;;;22.70;99.90;;;;;;5085623;28;20411;-84
2023/06/17 09:48:32;;;;;;;12.05;10.85;;;22.90;99.90;;;;;;5087347;28;20071;-85
2023/06/17 09:50:58;;;;;;;13.25;10.95;;;23.00;99.90;;;;;;5070338;28;20044;-85
2023/06/17 09:53:29;;;;;;;13.30;10.30;;;23.30;99.90;;;;;;5068452;28;20495;-85
2023/06/17 09:55:57;;;;;;;11.02;9.82;;;23.50;98.70;;;;;;5072255;28;20230;-84
2023/06/17 09:58:30;;;;;;;11.98;10.75;;;24.10;97.90;;;;;;5085576;28;20044;-85
2023/06/17 10:01:05;;;;;;;11.38;9.88;;;23.70;97.30;;;;;;5086542;28;20040;-83
2023/06/17 10:03:34;;;;;;;11.35;9.65;;;23.70;96.50;;;;;;5086587;28;20123;-83
2023/06/17 10:06:04;;;;;;;12.65;10.27;;;23.80;96.10;;;;;;5086613;28;20078;-82
2023/06/17 10:08:30;;;;;;;11.20;10.10;;;23.80;95.40;;;;;;5086856;28;20178;-82
2023/06/17 10:10:59;;;;;;;11.88;10.40;;;23.90;95.60;;;;;;5086811;28;20110;-83
2023/06/17 10:13:26;;;;;;;13.45;10.20;;;23.90;95.00;;;;;;5086524;28;20046;-82
2023/06/17 10:15:54;;;;;;;10.18;9.00;;;24.10;95.10;;;;;;5085835;28;20044;-83
2023/06/17 10:18:22;;;;;;;11.38;9.70;;;24.20;94.80;;;;;;5068260;28;20055;-83
2023/06/17 10:20:50;;;;;;;10.40;9.32;;;24.30;94.20;;;;;;5068916;28;20506;-83
2023/06/17 10:23:19;;;;;;;12.00;9.25;;;24.30;94.20;;;;;;5084147;28;20051;-82
2023/06/17 10:25:45;;;;;;;9.70;8.77;;;24.40;93.60;;;;;;5087075;28;20151;-83
2023/06/17 10:28:13;;;;;;;9.73;8.57;;;24.60;92.80;;;;;;5085297;28;20040;-85
2023/06/17 10:30:43;;;;;;;9.63;8.63;;;24.90;92.20;;;;;;5087532;28;20036;-84
2023/06/17 10:33:08;;;;;;;10.27;8.07;;;24.70;91.20;;;;;;5087600;28;20499;-83
2023/06/17 10:35:41;;;;;;;10.25;8.18;;;24.70;91.00;;;;;;5088667;28;20082;-84
2023/06/17 10:38:26;;;;;;;10.43;9.02;;;24.70;90.30;;;;;;5078998;28;20933;-84
2023/06/17 10:40:52;;;;;;;8.27;7.47;;;24.80;90.40;;;;;;5069742;28;20159;-84
2023/06/17 10:43:19;;;;;;;8.98;8.13;;;24.80;90.50;;;;;;5078188;28;20123;-84
2023/06/17 10:45:50;;;;;;;9.32;8.50;;;24.90;90.50;;;;;;5091185;28;20051;-84
2023/06/17 10:48:20;;;;;;;9.05;7.95;;;25.10;88.70;;;;;;5090458;28;20051;-84
2023/06/17 10:50:55;;;;;;;11.68;8.65;;;25.10;86.90;;;;;;5088511;28;20090;-84
2023/06/17 10:53:32;;;;;;;10.10;9.15;;;24.90;86.00;;;;;;5083789;28;20145;-84
2023/06/17 10:56:01;;;;;;;10.68;8.45;;;25.20;87.20;;;;;;5090500;28;20452;-84
2023/06/17 10:58:44;;;;;;;10.57;7.60;;;25.30;89.10;;;;;;5090831;28;20051;-84
2023/06/17 11:01:11;;;;;;;8.02;7.32;;;25.00;86.50;;;;;;5090191;28;20491;-84
2023/06/17 11:03:37;;;;;;;9.73;8.32;;;25.40;86.50;;;;;;5090842;28;20636;-83
2023/06/17 11:06:05;;;;;;;10.30;8.02;;;25.50;84.90;;;;;;5090085;28;20410;-83
2023/06/17 11:08:32;;;;;;;9.55;7.50;;;25.60;84.20;;;;;;5090036;28;20055;-83
2023/06/17 11:11:09;;;;;;;9.82;7.97;;;25.60;82.00;;;;;;5088608;28;20526;-83
2023/06/17 11:13:39;;;;;;;8.63;7.70;;;25.70;80.80;;;;;;5091523;28;20062;-82
2023/06/17 11:16:05;;;;;;;10.00;7.38;;;25.60;81.30;;;;;;5088841;28;20048;-83
2023/06/17 11:18:33;;;;;;;8.05;7.13;;;25.60;81.00;;;;;;5073152;28;20052;-83
2023/06/17 11:20:59;;;;;;;10.35;7.07;;;25.60;80.20;;;;;;5088329;28;20055;-83
2023/06/17 11:23:26;;;;;;;18.25;9.32;;;25.80;81.00;;;;;;5084966;28;20032;-82
2023/06/17 11:25:53;;;;;;;7.95;7.07;;;26.00;82.70;;;;;;5082235;28;20063;-83
2023/06/17 11:28:20;;;;;;;9.65;7.18;;;26.00;80.90;;;;;;5091159;28;20044;-82
2023/06/17 11:30:46;;;;;;;7.88;6.90;;;26.10;79.70;;;;;;5090861;28;20044;-82
2023/06/17 11:33:12;;;;;;;8.35;7.13;;;26.20;77.90;;;;;;5079039;28;20043;-83
2023/06/17 11:35:38;;;;;;;6.97;6.28;;;26.30;77.10;;;;;;5089954;28;20083;-83
2023/06/17 11:38:04;;;;;;;8.05;6.78;;;26.50;76.10;;;;;;5090859;28;20036;-84
2023/06/17 11:40:30;;;;;;;7.95;6.85;;;26.60;74.80;;;;;;5091220;28;20169;-84
2023/06/17 11:42:57;;;;;;;8.45;6.15;;;26.70;74.50;;;;;;5089553;28;20469;-84
2023/06/17 11:45:23;;;;;;;14.65;6.93;;;26.70;73.40;;;;;;5090176;28;20506;-83
2023/06/17 11:47:49;;;;;;;9.73;7.47;;;26.60;71.70;;;;;;5089023;28;20051;-82
2023/06/17 11:50:16;;;;;;;7.57;6.78;;;26.50;71.70;;;;;;5087672;28;20044;-84
2023/06/17 11:52:53;;;;;;;7.93;6.63;;;26.50;72.50;;;;;;5087497;28;20511;-84
2023/06/17 11:55:18;;;;;;;11.05;6.20;;;26.50;70.20;;;;;;5089501;28;20043;-85
2023/06/17 11:57:44;;;;;;;6.60;6.00;;;26.60;70.30;;;;;;5089459;28;20552;-86
2023/06/17 12:00:10;;;;;;;9.05;6.30;;;26.50;70.00;;;;;;5089070;28;20048;-84
2023/06/17 12:02:36;;;;;;;9.98;6.93;;;26.60;69.50;;;;;;5087900;28;20518;-86
2023/06/17 12:05:02;;;;;;;7.32;6.60;;;26.70;69.50;;;;;;5088171;28;20040;-85
2023/06/17 12:07:35;;;;;;;9.38;7.00;;;26.50;69.50;;;;;;5086488;28;20040;-86
2023/06/17 12:10:01;;;;;;;6.82;6.20;;;26.50;70.20;;;;;;5090101;28;20085;-86
2023/06/17 12:12:32;;;;;;;7.03;6.32;;;26.50;70.90;;;;;;5071734;28;20051;-85
2023/06/17 12:15:07;;;;;;;8.00;7.20;;;26.60;69.70;;;;;;5089956;28;20491;-86
2023/06/17 12:17:51;;;;;;;7.45;6.65;;;26.60;69.20;;;;;;5089296;28;20126;-86
2023/06/17 12:20:18;;;;;;;8.57;6.85;;;26.70;68.00;;;;;;5087338;28;20106;-85
2023/06/17 12:22:46;;;;;;;7.65;6.95;;;26.70;70.10;;;;;;5070643;28;20741;-85
2023/06/17 12:25:12;;;;;;;8.80;6.90;;;26.60;69.70;;;;;;5089950;28;20048;-86
2023/06/17 12:27:39;;;;;;;7.70;6.78;;;26.70;71.10;;;;;;5087704;28;20047;-88
2023/06/17 12:30:05;;;;;;;9.80;6.88;;;26.80;70.70;;;;;;5087711;28;20036;-85